Rittman, Ohio
Current Conditions -  °F | °C
As of 7:56 AM on Saturday 25 Oct 2014 (Local Time) from KBJJ Reporting Station
Clear Clear  
Wind Chill: 47°   Ceiling: Unl
Heat Index: 47°   Visibility: 7mi
Dew Point: 40°   Wind: 3mph
Humidity: 77%   Direction: 220°SW
Pressure: 29.94"   Gusts: NA
Location:  40.97°N, 81.78°W
Report Text: KBJJ 251156Z AUTO 22003KT 7SM CLR 08/04 A2994 RMK AO2 SLP139 T00830044 10083 20061 58006 TSNO
Loading
Personal Weather Stations






























Interactive Weather Map
Tropical Storm Tracking
New forecast layout! Learn more

10-Day Weather Forecast

Advertisements
Track Severe Weather on mobile